Time;durP1;ratioP1;P1;durP2;ratioP2;P2;SDS_P1;SDS_P2;PMS_P1;PMS_P2;Temp;Humidity;BMP_temperature;BMP_pressure;BME280_temperature;BME280_humidity;BME280_pressure;Samples;Min_cycle;Max_cycle;Signal;HPM_P1;HPM_P2
2021/08/12 00:01:52;;;;;;;2.90;1.85;;;20.70;62.80;;;;;;21085259;28;20036;-21
2021/08/12 00:11:52;;;;;;;2.08;1.65;;;20.60;62.70;;;;;;21078720;28;20385;-21
2021/08/12 00:21:53;;;;;;;2.13;1.67;;;20.60;62.80;;;;;;21075979;28;20058;-21
2021/08/12 00:31:53;;;;;;;2.10;1.58;;;20.60;62.70;;;;;;21076452;28;20115;-20
2021/08/12 00:41:55;;;;;;;2.73;2.00;;;20.70;62.80;;;;;;21076036;28;20040;-21
2021/08/12 00:51:56;;;;;;;3.60;2.53;;;20.70;62.80;;;;;;21074894;28;20470;-21
2021/08/12 01:01:58;;;;;;;2.60;1.83;;;20.60;62.70;;;;;;21073707;28;20442;-20
2021/08/12 01:12:10;;;;;;;3.60;2.40;;;20.60;62.70;;;;;;21073398;28;20052;-21
2021/08/12 01:22:13;;;;;;;2.92;2.05;;;20.60;62.80;;;;;;21072609;28;20481;-21
2021/08/12 01:32:25;;;;;;;2.65;1.90;;;20.60;62.80;;;;;;21071583;28;20032;-20
2021/08/12 01:42:27;;;;;;;2.72;1.70;;;20.60;62.80;;;;;;21071609;28;20032;-21
2021/08/12 01:52:30;;;;;;;3.13;2.30;;;20.60;62.80;;;;;;21070501;28;20492;-20
2021/08/12 02:02:34;;;;;;;2.50;1.70;;;20.60;62.80;;;;;;21069294;28;20054;-21
2021/08/12 02:12:35;;;;;;;2.35;1.73;;;20.60;62.80;;;;;;21068615;28;20044;-20
2021/08/12 02:22:52;;;;;;;2.10;1.55;;;20.60;62.80;;;;;;21068336;28;20097;-20
2021/08/12 02:32:54;;;;;;;2.42;1.65;;;20.60;62.80;;;;;;21067394;28;20518;-21
2021/08/12 02:42:55;;;;;;;2.35;1.58;;;20.60;62.80;;;;;;21075607;28;20503;-20
2021/08/12 02:52:56;;;;;;;4.18;2.17;;;20.60;62.80;;;;;;21084219;28;20047;-20
2021/08/12 03:02:58;;;;;;;2.05;1.63;;;20.60;62.80;;;;;;21083713;28;20135;-20
2021/08/12 03:13:00;;;;;;;2.55;1.63;;;20.60;62.80;;;;;;21083189;28;20403;-20
2021/08/12 03:23:00;;;;;;;2.63;2.00;;;20.60;62.80;;;;;;21082297;28;20028;-21
2021/08/12 03:33:01;;;;;;;3.05;2.38;;;20.60;62.80;;;;;;21081120;28;20523;-21
2021/08/12 03:43:01;;;;;;;3.20;2.58;;;20.60;62.90;;;;;;21080350;28;20082;-21
2021/08/12 03:53:02;;;;;;;2.90;2.10;;;20.50;62.80;;;;;;21079178;28;20036;-21
2021/08/12 04:03:03;;;;;;;2.53;1.93;;;20.50;62.80;;;;;;21079246;28;20067;-21
2021/08/12 04:13:03;;;;;;;3.20;2.13;;;20.50;62.80;;;;;;21079830;28;20556;-21
2021/08/12 04:23:04;;;;;;;2.58;2.05;;;20.50;62.80;;;;;;21078533;28;20040;-21
2021/08/12 04:33:04;;;;;;;7.03;2.13;;;20.50;62.80;;;;;;21076270;28;20418;-21
2021/08/12 04:43:05;;;;;;;3.38;2.10;;;20.50;62.80;;;;;;21075681;28;20512;-21
2021/08/12 04:53:06;;;;;;;3.85;2.28;;;20.50;62.80;;;;;;21074753;28;20032;-20
2021/08/12 05:03:06;;;;;;;3.25;2.08;;;20.50;62.80;;;;;;21090027;22;20068;-19
2021/08/12 05:13:07;;;;;;;2.60;1.88;;;20.50;62.80;;;;;;21074611;28;20032;-19
2021/08/12 05:23:07;;;;;;;2.63;2.05;;;20.50;62.70;;;;;;21074829;28;20060;-20
2021/08/12 05:33:08;;;;;;;3.72;2.15;;;20.50;62.70;;;;;;21073543;28;20122;-20
2021/08/12 05:43:09;;;;;;;2.75;2.10;;;20.50;62.70;;;;;;21072815;28;20039;-20
2021/08/12 05:53:15;;;;;;;5.38;2.25;;;20.50;62.60;;;;;;21106621;28;20059;-19
2021/08/12 06:03:16;;;;;;;3.63;2.53;;;20.60;62.70;;;;;;21089666;28;20051;-19
2021/08/12 06:13:16;;;;;;;3.35;2.80;;;20.60;62.70;;;;;;21070812;28;20123;-19
2021/08/12 06:23:17;;;;;;;3.97;2.30;;;20.60;62.70;;;;;;21069804;28;20400;-19
2021/08/12 06:33:17;;;;;;;4.30;2.63;;;20.50;62.60;;;;;;21068971;28;20410;-19
2021/08/12 06:43:18;;;;;;;2.63;2.10;;;20.60;62.60;;;;;;21069544;28;20584;-19
2021/08/12 06:53:18;;;;;;;3.20;2.40;;;20.60;62.60;;;;;;21069507;28;20032;-20
2021/08/12 07:03:19;;;;;;;3.13;2.35;;;20.60;62.50;;;;;;21069934;28;20264;-20
2021/08/12 07:13:19;;;;;;;2.70;1.98;;;20.60;62.50;;;;;;21072140;28;20093;-20
2021/08/12 07:23:20;;;;;;;2.83;2.20;;;20.60;62.50;;;;;;21071043;28;20040;-19
2021/08/12 07:33:20;;;;;;;3.05;2.35;;;20.60;62.50;;;;;;21084382;28;20451;-21
2021/08/12 07:43:21;;;;;;;2.80;2.33;;;20.60;62.50;;;;;;21107750;28;20032;-20
2021/08/12 07:53:22;;;;;;;2.38;1.73;;;20.60;62.60;;;;;;21091831;28;20032;-21
2021/08/12 08:03:22;;;;;;;2.45;2.08;;;20.60;62.60;;;;;;21081871;28;20052;-20
2021/08/12 08:13:23;;;;;;;3.03;2.53;;;20.60;62.70;;;;;;21080909;28;20070;-20
2021/08/12 08:23:23;;;;;;;3.28;2.50;;;20.60;62.70;;;;;;21080879;28;20040;-20
2021/08/12 08:33:24;;;;;;;3.13;2.15;;;20.60;62.70;;;;;;21079971;28;20032;-20
2021/08/12 08:43:25;;;;;;;2.55;2.17;;;20.60;62.70;;;;;;21077479;28;20071;-19
2021/08/12 08:53:27;;;;;;;2.60;1.90;;;20.60;62.80;;;;;;21077657;28;20031;-19
2021/08/12 09:03:27;;;;;;;3.40;2.38;;;20.60;62.80;;;;;;21076188;28;20481;-19
2021/08/12 09:13:29;;;;;;;2.72;2.05;;;20.70;62.80;;;;;;21075653;28;20067;-19
2021/08/12 09:23:29;;;;;;;3.10;2.63;;;20.60;62.80;;;;;;21076009;28;20653;-19
2021/08/12 09:33:40;;;;;;;3.25;2.60;;;20.70;62.90;;;;;;21077501;28;20040;-19
2021/08/12 09:43:42;;;;;;;2.75;2.22;;;20.60;62.80;;;;;;21083575;28;20036;-20
2021/08/12 09:53:42;;;;;;;2.83;2.58;;;20.70;62.80;;;;;;21072950;28;20039;-19
2021/08/12 10:03:44;;;;;;;2.58;1.95;;;20.70;62.80;;;;;;21070437;28;20044;-19
2021/08/12 10:13:46;;;;;;;2.85;2.13;;;20.70;62.80;;;;;;21070105;28;20048;-19
2021/08/12 10:23:49;;;;;;;3.35;2.30;;;20.80;62.80;;;;;;21069931;28;20135;-19
2021/08/12 10:33:50;;;;;;;2.95;2.40;;;20.80;62.90;;;;;;21070919;28;20068;-19
2021/08/12 10:43:54;;;;;;;3.85;2.70;;;20.80;62.70;;;;;;21071171;28;20101;-20
2021/08/12 10:54:14;;;;;;;2.78;2.28;;;20.80;62.80;;;;;;21069139;28;20165;-19
2021/08/12 11:04:15;;;;;;;2.40;2.00;;;20.80;62.70;;;;;;21079548;22;20063;-21
2021/08/12 11:14:43;;;;;;;2.88;2.22;;;20.80;62.70;;;;;;21000759;28;20044;-20
2021/08/12 11:24:49;;;;;;;2.70;2.15;;;20.90;62.70;;;;;;21004415;28;20075;-20
2021/08/12 11:34:52;;;;;;;4.43;2.22;;;20.90;62.60;;;;;;21000012;28;20385;-20
2021/08/12 11:44:55;;;;;;;2.88;2.38;;;20.90;62.60;;;;;;20996313;28;20048;-20
2021/08/12 11:54:58;;;;;;;2.60;2.20;;;20.90;62.50;;;;;;20995262;28;20115;-20
2021/08/12 12:04:59;;;;;;;2.92;2.13;;;21.00;62.50;;;;;;20999439;28;20044;-20
2021/08/12 12:14:59;;;;;;;3.08;2.53;;;20.90;62.50;;;;;;20995825;28;20107;-20
2021/08/12 12:25:03;;;;;;;2.85;2.42;;;21.00;62.50;;;;;;20993669;28;20508;-20
2021/08/12 12:35:07;;;;;;;2.50;1.83;;;20.90;62.50;;;;;;20993186;28;20051;-21
2021/08/12 12:45:10;;;;;;;3.47;1.92;;;21.00;62.40;;;;;;20992996;28;20041;-19
2021/08/12 12:55:22;;;;;;;2.40;1.85;;;21.00;62.50;;;;;;20994071;28;20427;-21
2021/08/12 13:05:23;;;;;;;2.88;2.17;;;21.00;62.50;;;;;;20995656;28;20178;-21
2021/08/12 13:15:24;;;;;;;2.70;2.20;;;21.00;62.40;;;;;;20990271;28;20024;-21
2021/08/12 13:25:25;;;;;;;2.20;1.67;;;21.10;62.40;;;;;;20991344;28;20050;-21
2021/08/12 13:35:26;;;;;;;2.60;1.70;;;21.10;62.50;;;;;;20988300;28;20393;-20
2021/08/12 13:45:27;;;;;;;2.97;1.92;;;21.10;62.40;;;;;;20987615;28;20396;-21
2021/08/12 13:55:27;;;;;;;2.50;1.90;;;21.10;62.30;;;;;;20986859;28;20105;-20
2021/08/12 14:05:28;;;;;;;3.15;2.25;;;21.10;62.40;;;;;;20987396;28;20040;-20
2021/08/12 14:15:28;;;;;;;2.95;2.17;;;21.10;62.30;;;;;;20986023;28;20078;-21
2021/08/12 14:25:29;;;;;;;2.55;2.10;;;21.10;62.30;;;;;;20986059;28;20523;-21
2021/08/12 14:35:29;;;;;;;3.53;1.60;;;21.10;62.30;;;;;;20989308;28;20048;-21
2021/08/12 14:45:32;;;;;;;2.90;2.00;;;21.10;62.40;;;;;;20995574;28;20047;-23
2021/08/12 14:55:33;;;;;;;1.83;1.17;;;21.10;62.40;;;;;;20990425;28;20036;-21
2021/08/12 15:05:34;;;;;;;2.85;2.05;;;21.10;62.30;;;;;;20983962;28;20036;-20
2021/08/12 15:15:35;;;;;;;2.83;1.92;;;21.10;62.40;;;;;;20984930;28;20516;-20
2021/08/12 15:25:35;;;;;;;2.40;1.77;;;21.10;62.40;;;;;;20984183;28;20626;-21
2021/08/12 15:35:36;;;;;;;2.50;2.00;;;21.10;62.40;;;;;;20983603;28;20117;-21
2021/08/12 15:45:39;;;;;;;2.42;1.98;;;21.10;62.50;;;;;;20983396;28;20562;-20
2021/08/12 15:55:40;;;;;;;2.42;2.03;;;21.10;62.60;;;;;;20998234;28;20115;-21
2021/08/12 16:05:41;;;;;;;2.10;1.30;;;21.10;62.60;;;;;;20997344;28;20059;-21
2021/08/12 16:15:41;;;;;;;2.33;1.75;;;21.10;62.60;;;;;;21016265;28;20033;-21
2021/08/12 16:25:42;;;;;;;2.25;1.70;;;21.10;62.60;;;;;;20995278;28;20122;-21
2021/08/12 16:35:42;;;;;;;2.20;1.58;;;21.10;62.50;;;;;;20998325;28;20032;-22
2021/08/12 16:45:43;;;;;;;3.25;2.33;;;21.10;63.10;;;;;;20993397;28;20037;-21
2021/08/12 16:55:44;;;;;;;2.45;1.75;;;21.10;62.60;;;;;;20993793;28;20036;-20
2021/08/12 17:05:44;;;;;;;2.72;1.33;;;21.10;62.60;;;;;;21044945;22;20539;-20
2021/08/12 17:15:45;;;;;;;2.45;1.58;;;21.10;62.60;;;;;;21083347;28;20169;-19
2021/08/12 17:25:46;;;;;;;2.95;1.83;;;21.10;62.60;;;;;;21076723;28;20040;-19
2021/08/12 17:35:46;;;;;;;2.20;1.70;;;21.10;62.60;;;;;;21075007;28;20448;-20
2021/08/12 17:45:47;;;;;;;4.10;2.57;;;21.10;62.60;;;;;;21073971;28;20039;-20
2021/08/12 17:55:47;;;;;;;1.80;1.48;;;21.10;62.60;;;;;;21073369;28;20072;-20
2021/08/12 18:05:49;;;;;;;3.50;1.95;;;21.10;62.60;;;;;;21070249;28;20036;-20
2021/08/12 18:15:49;;;;;;;2.67;1.88;;;21.10;62.60;;;;;;21071461;28;20028;-21
2021/08/12 18:25:50;;;;;;;4.57;1.83;;;21.10;62.60;;;;;;21072219;28;20456;-20
2021/08/12 18:35:52;;;;;;;4.53;2.10;;;21.10;62.60;;;;;;21071819;28;20032;-19
2021/08/12 18:45:52;;;;;;;2.67;1.80;;;21.10;62.60;;;;;;21081071;28;20387;-20
2021/08/12 18:55:53;;;;;;;1.63;1.15;;;21.10;62.60;;;;;;21071987;28;20111;-20
2021/08/12 19:05:53;;;;;;;2.55;1.80;;;21.10;62.60;;;;;;21069075;28;20036;-20
2021/08/12 19:15:54;;;;;;;2.35;1.55;;;21.10;62.60;;;;;;21068706;28;20488;-19
2021/08/12 19:25:54;;;;;;;3.33;1.23;;;21.10;62.60;;;;;;21077284;28;20492;-20
2021/08/12 19:35:55;;;;;;;3.00;1.70;;;21.00;62.70;;;;;;21083300;28;20123;-20
2021/08/12 19:45:55;;;;;;;2.72;1.95;;;21.10;62.70;;;;;;21083449;28;20473;-20
2021/08/12 19:55:56;;;;;;;2.15;1.30;;;21.00;62.60;;;;;;21083323;28;20063;-20
2021/08/12 20:05:57;;;;;;;5.32;1.55;;;21.00;62.60;;;;;;21081377;28;20137;-20
2021/08/12 20:15:57;;;;;;;2.65;1.58;;;21.00;62.70;;;;;;21080890;28;20056;-20
2021/08/12 20:25:58;;;;;;;4.33;1.70;;;21.00;62.70;;;;;;21080171;28;20094;-20
2021/08/12 20:35:58;;;;;;;2.35;1.67;;;21.00;62.70;;;;;;21081481;28;20469;-20
2021/08/12 20:45:59;;;;;;;2.33;1.48;;;21.00;62.70;;;;;;21078784;28;20172;-20
2021/08/12 20:56:04;;;;;;;1.85;1.52;;;21.00;62.80;;;;;;21077219;28;20115;-20
2021/08/12 21:06:05;;;;;;;2.05;1.40;;;21.00;62.80;;;;;;21076450;28;20419;-20
2021/08/12 21:16:05;;;;;;;1.80;1.30;;;20.90;62.90;;;;;;21076261;28;20079;-20
2021/08/12 21:26:06;;;;;;;2.85;2.00;;;21.00;62.90;;;;;;21079480;28;20043;-20
2021/08/12 21:36:06;;;;;;;2.70;1.52;;;21.00;62.90;;;;;;21075744;28;20103;-19
2021/08/12 21:46:08;;;;;;;4.00;1.63;;;21.00;62.90;;;;;;21074544;28;20336;-19
2021/08/12 21:56:08;;;;;;;2.10;1.50;;;21.00;62.90;;;;;;21076959;28;20460;-19
2021/08/12 22:06:09;;;;;;;1.83;1.50;;;21.00;62.90;;;;;;21073120;28;20585;-20
2021/08/12 22:16:09;;;;;;;2.38;1.75;;;20.90;62.90;;;;;;21073441;28;20086;-20
2021/08/12 22:26:10;;;;;;;4.23;2.00;;;21.00;63.00;;;;;;21073968;28;20039;-20
2021/08/12 22:36:11;;;;;;;2.30;1.70;;;21.00;63.00;;;;;;21078578;28;20046;-20
2021/08/12 22:46:11;;;;;;;2.92;2.17;;;21.00;63.00;;;;;;21071005;28;20530;-20
2021/08/12 22:56:12;;;;;;;2.58;1.85;;;21.00;63.00;;;;;;21069969;28;20039;-20
2021/08/12 23:06:13;;;;;;;2.47;1.90;;;21.00;63.00;;;;;;21085298;28;20077;-19
2021/08/12 23:16:13;;;;;;;2.88;1.92;;;21.00;63.00;;;;;;21084759;28;20426;-21
2021/08/12 23:26:14;;;;;;;2.88;1.80;;;21.00;63.00;;;;;;21084110;28;20123;-21
2021/08/12 23:36:14;;;;;;;6.03;1.52;;;21.00;63.00;;;;;;21083266;28;20047;-20
2021/08/12 23:46:15;;;;;;;4.73;1.90;;;20.90;63.00;;;;;;21092734;28;20036;-20
2021/08/12 23:56:16;;;;;;;2.58;1.63;;;20.90;63.00;;;;;;21103739;28;20468;-21
